Kinoosao, Saskatchewan

10:07 PM CST on April 20, 2018 (GMT -0600)
Lynn Lake | | Change Station

Elev 1171 ft 56.87 °N, 101.08 °W | Updated 7 minutes ago

Partly Cloudy
Partly Cloudy
43 °F
Feels Like 39 °F
N
6
Wind Variable Wind from South

Today
High -- | Low -- °F
--% Chance of Precip.
Yesterday
High -- | Low -- °F
Precip. -- in
Pressure 30.07 in
Visibility 9.0 miles
Clouds Mostly Cloudy 12000 ft
Overcast 20000 ft
Windchill 39 °F
Dew Point 25 °F
Humidity 49%
Rainfall 0.00 in
Snow Depth Not available.
5:26 AM 8:08 PM
Waxing Crescent, 31% visible
METAR CYYL 210400Z AUTO 19005KT 9SM BKN120 OVC200 06/M04 A3002 RMK SLP183
Pressure 30.07 in
Visibility 9.0 miles
Clouds Mostly Cloudy 12000 ft
Overcast 20000 ft
Windchill 39 °F
Dew Point 25 °F
Humidity 49%
Rainfall 0.00 in
Snow Depth Not available.
5:26 AM 8:08 PM
Waxing Crescent, 31% visible
METAR CYYL 210400Z AUTO 19005KT 9SM BKN120 OVC200 06/M04 A3002 RMK SLP183

Get Severe Weather Alerts

Thanks for signing up!

Be on the lookout for a verification email in your inbox.

You'll start receiving the daily forecast at 6 AM.

×

10-Day Weather Forecast

Almanac

Astronomy

Apr. 20, 2018 Rise Set
Actual Time
Civil Twilight
Nautical Twilight
Astronomical Twilight
Moon
Length of Visible Light
Length of Day
Tomorrow will be .
, % of the Moon is Illuminated

Today's Extremes

Country Highs Country Lows

Community

WunderPhotos

Category 6

Welcome to Category 6. This is the collective home for Weather Underground's featured writeups by Dr. Jeff Masters (right), Bob Henson (left), Chris Burt, and other regular contributors.

Nearby

Air Quality

  Air Quality AQ Index Pollutant
Not available.

Snow Depth

Station Depth Elevation

Earthquake Activity

City Distance Mag. Time & Date
Minimum magnitude displayed is 2.5.

Coastal Water Temperatures

Place Temperature

Stations

Nearby Weather Stations

Station Location Temp. Windchill Dew Point Humidity Wind Precip. Elev Updated Type
                   

Watches & Warnings

There are currently no watches in effect.